Time;durP1;ratioP1;P1;durP2;ratioP2;P2;SDS_P1;SDS_P2;PMS_P1;PMS_P2;Temp;Humidity;BMP_temperature;BMP_pressure;BME280_temperature;BME280_humidity;BME280_pressure;Samples;Min_cycle;Max_cycle;Signal;HPM_P1;HPM_P2
2022/01/12 00:00:23;;;;;;;7.03;4.00;;;1.90;99.90;;;3.02;89.66;102459.09;5054104;28;20036;-82
2022/01/12 00:02:49;;;;;;;11.27;4.25;;;1.90;99.90;;;3.02;89.71;102466.53;5051763;28;20044;-82
2022/01/12 00:05:20;;;;;;;6.40;3.40;;;1.90;99.90;;;2.97;89.86;102466.50;5052799;28;20511;-81
2022/01/12 00:07:50;;;;;;;6.10;3.58;;;1.90;99.90;;;2.93;89.96;102462.59;5051343;28;20039;-82
2022/01/12 00:10:18;;;;;;;8.30;3.92;;;1.90;99.90;;;2.93;89.75;102457.94;5051722;28;20156;-80
2022/01/12 00:12:44;;;;;;;6.93;3.78;;;1.90;99.90;;;2.89;89.73;102442.16;5065727;28;20029;-83
2022/01/12 00:15:10;;;;;;;6.38;3.25;;;1.90;99.90;;;2.87;89.58;102438.81;5072864;28;20031;-82
2022/01/12 00:17:36;;;;;;;7.30;3.25;;;2.00;99.90;;;2.92;89.73;102436.13;5055173;28;20029;-84
2022/01/12 00:20:04;;;;;;;6.57;3.30;;;2.00;99.90;;;3.00;89.03;102436.47;5072890;28;20055;-84
2022/01/12 00:22:34;;;;;;;8.85;3.55;;;2.00;99.90;;;2.95;89.59;102430.06;5078064;28;20369;-84
2022/01/12 00:35:34;;;;;;;7.45;4.10;;;2.10;99.90;;;2.97;89.78;102428.72;5053321;28;20500;-82
2022/01/12 00:38:00;;;;;;;7.97;3.60;;;2.10;99.90;;;3.05;89.57;102430.16;5052199;28;20068;-83
2022/01/12 00:40:29;;;;;;;7.43;3.83;;;2.00;99.90;;;3.06;89.20;102434.56;5052823;28;20029;-84
2022/01/12 00:42:55;;;;;;;8.52;3.67;;;2.00;99.90;;;3.08;89.07;102429.63;5051814;28;20025;-81
2022/01/12 00:45:21;;;;;;;9.13;3.33;;;2.00;99.90;;;3.12;89.00;102439.00;5084020;28;20107;-82
2022/01/12 00:47:50;;;;;;;6.53;2.95;;;2.10;99.90;;;3.21;88.83;102442.97;5055082;28;20028;-80
2022/01/12 00:50:17;;;;;;;6.00;3.28;;;2.10;99.90;;;3.26;88.38;102464.25;5070981;28;20056;-82
2022/01/12 00:52:48;;;;;;;7.03;3.42;;;2.10;99.90;;;3.23;88.70;102473.91;5055024;28;20036;-83
2022/01/12 00:55:14;;;;;;;7.20;3.78;;;2.00;99.90;;;3.18;88.95;102482.13;5054127;28;20025;-82
2022/01/12 00:57:40;;;;;;;7.20;3.60;;;2.00;99.90;;;3.21;88.71;102489.91;5053753;28;20040;-81
2022/01/12 01:00:08;;;;;;;8.93;3.72;;;2.00;99.90;;;3.17;88.68;102492.38;5054010;28;20032;-82
2022/01/12 01:02:34;;;;;;;7.13;3.35;;;1.90;99.90;;;3.06;89.09;102487.00;5052682;28;20053;-82
2022/01/12 01:05:01;;;;;;;6.13;2.97;;;1.90;99.90;;;2.95;89.56;102471.47;5054285;28;20500;-82
2022/01/12 01:07:27;;;;;;;9.02;3.97;;;1.80;99.90;;;2.82;89.88;102463.63;5051972;28;20123;-83
2022/01/12 01:10:15;;;;;;;7.65;3.33;;;1.70;99.90;;;2.78;90.52;102457.81;5053085;28;20445;-82
2022/01/12 01:12:46;;;;;;;8.50;3.67;;;1.70;99.90;;;2.87;91.06;102470.03;5051340;28;20037;-83
2022/01/12 01:15:17;;;;;;;8.55;3.75;;;1.70;99.90;;;2.90;90.53;102474.19;5051484;28;20088;-83
2022/01/12 01:25:51;;;;;;;4.88;3.05;;;1.90;99.90;;;3.13;89.82;102498.69;5081104;28;20039;-85
2022/01/12 01:28:20;;;;;;;9.32;3.63;;;2.00;99.90;;;3.18;89.33;102495.94;5085124;28;20245;-81
2022/01/12 01:30:46;;;;;;;6.82;3.28;;;2.10;99.90;;;3.26;89.18;102491.88;5074094;28;20048;-83
2022/01/12 01:33:17;;;;;;;8.40;3.47;;;2.20;99.90;;;3.34;89.15;102491.41;5053608;28;20047;-81
2022/01/12 01:35:54;;;;;;;7.07;3.60;;;2.30;99.90;;;3.49;88.34;102494.25;5071359;28;20029;-82
2022/01/12 01:38:20;;;;;;;7.05;3.47;;;2.30;99.90;;;3.57;88.30;102504.78;5071497;28;20131;-83
2022/01/12 01:40:47;;;;;;;7.18;3.90;;;2.40;99.90;;;3.68;87.53;102501.84;5057218;28;20029;-83
2022/01/12 01:43:24;;;;;;;7.47;3.90;;;2.50;99.90;;;3.75;87.01;102514.59;5077124;28;20036;-81
2022/01/12 01:54:07;;;;;;;6.63;3.75;;;2.80;99.90;;;3.93;86.02;102527.94;5075237;28;20102;-83
2022/01/12 01:56:33;;;;;;;8.65;3.45;;;2.80;99.90;;;4.01;85.45;102519.16;5075892;28;20020;-82
2022/01/12 01:58:59;;;;;;;5.60;3.25;;;2.80;99.90;;;4.02;85.47;102520.81;5057159;28;20396;-83
2022/01/12 02:01:25;;;;;;;8.27;3.35;;;2.90;99.90;;;4.04;85.46;102518.63;5057913;28;20033;-81
2022/01/12 02:03:53;;;;;;;5.72;3.78;;;2.90;99.90;;;4.06;85.11;102525.53;5075294;28;20029;-83
2022/01/12 02:06:23;;;;;;;5.57;3.70;;;2.90;99.90;;;4.08;85.40;102533.56;5058584;28;20058;-82
2022/01/12 02:08:49;;;;;;;6.55;3.75;;;3.00;99.90;;;3.97;85.66;102532.69;5074392;28;20120;-82
2022/01/12 02:11:14;;;;;;;10.25;4.22;;;3.00;99.90;;;4.02;85.01;102537.38;5058652;28;20488;-82
2022/01/12 02:13:41;;;;;;;7.55;4.20;;;3.10;99.90;;;4.09;84.55;102538.81;5057626;28;20060;-80
2022/01/12 02:16:07;;;;;;;5.88;3.63;;;3.10;99.90;;;4.23;84.25;102533.66;5058200;28;20036;-81
2022/01/12 02:19:05;;;;;;;8.02;4.30;;;3.10;99.90;;;4.23;84.27;102537.25;5073901;28;20024;-84
2022/01/12 02:40:47;;;;;;;8.07;3.85;;;2.80;99.90;;;3.70;87.06;102491.34;5036847;28;20025;-83
2022/01/12 02:51:15;;;;;;;10.02;4.65;;;2.70;99.90;;;3.59;87.38;102486.88;5034390;28;20127;-83
2022/01/12 02:53:44;;;;;;;13.05;5.30;;;2.60;99.90;;;3.64;87.24;102494.34;5036138;28;20105;-84
2022/01/12 02:56:26;;;;;;;6.15;3.95;;;2.60;99.90;;;3.58;87.28;102507.31;5033480;28;20076;-84
2022/01/12 02:58:58;;;;;;;6.80;4.35;;;2.50;99.90;;;3.55;87.74;102501.47;5017660;28;20488;-83
2022/01/12 03:03:59;;;;;;;7.50;3.70;;;2.50;99.90;;;3.66;87.52;102512.31;5035557;28;20116;-84
2022/01/12 03:06:32;;;;;;;6.78;4.65;;;2.50;99.90;;;3.75;87.50;102518.19;5033767;28;20130;-81
2022/01/12 03:08:59;;;;;;;6.18;4.07;;;2.50;99.90;;;3.83;86.57;102522.34;5034985;28;20031;-82
2022/01/12 03:11:28;;;;;;;8.98;4.25;;;2.60;99.90;;;3.85;86.75;102509.97;5033083;28;20448;-83
2022/01/12 03:13:55;;;;;;;8.20;4.28;;;2.60;99.90;;;3.87;86.38;102515.19;5033665;28;20044;-83
2022/01/12 03:16:24;;;;;;;9.90;4.10;;;2.70;99.90;;;3.85;86.66;102507.19;5033739;28;20036;-81
2022/01/12 03:18:56;;;;;;;8.85;4.18;;;2.60;99.90;;;3.82;86.40;102515.19;5047015;23;20127;-79
2022/01/12 03:21:27;;;;;;;7.43;4.32;;;2.60;99.90;;;3.76;86.63;102511.53;5015784;28;20436;-79
2022/01/12 03:23:54;;;;;;;7.03;3.72;;;2.60;99.90;;;3.83;86.48;102514.06;5016959;28;20393;-81
2022/01/12 03:26:25;;;;;;;8.13;3.83;;;2.70;99.90;;;3.80;86.32;102509.06;5030476;28;20033;-80
2022/01/12 03:28:55;;;;;;;7.35;4.20;;;2.70;99.90;;;3.88;86.20;102519.63;5017974;28;20039;-80
2022/01/12 03:31:29;;;;;;;6.95;4.45;;;2.70;99.90;;;3.86;85.87;102519.91;5020642;28;20503;-80
2022/01/12 03:34:06;;;;;;;7.55;4.20;;;2.70;99.90;;;3.97;85.31;102534.63;5037384;28;20447;-81
2022/01/12 03:36:54;;;;;;;7.68;4.18;;;2.80;99.90;;;4.06;84.94;102531.06;5020839;28;20030;-80
2022/01/12 03:39:24;;;;;;;6.65;4.50;;;2.80;99.90;;;4.08;85.01;102528.84;5049637;28;20029;-78
2022/01/12 03:41:53;;;;;;;5.35;3.72;;;2.90;99.90;;;4.13;84.44;102551.03;5052932;28;20030;-82
2022/01/12 03:44:18;;;;;;;5.15;3.65;;;2.90;99.90;;;4.19;84.69;102552.72;5027838;28;20048;-82
2022/01/12 03:46:51;;;;;;;6.45;3.72;;;3.00;99.90;;;4.23;84.03;102561.31;5025596;28;20040;-82
2022/01/12 03:49:20;;;;;;;6.82;3.70;;;3.00;99.90;;;4.25;84.05;102565.47;5018104;28;20384;-80
2022/01/12 03:51:47;;;;;;;6.35;3.58;;;3.00;99.90;;;4.20;83.74;102551.63;5017864;28;20429;-82
2022/01/12 03:54:18;;;;;;;6.68;3.72;;;3.00;99.90;;;4.20;84.29;102545.25;5018827;28;20116;-81
2022/01/12 03:56:44;;;;;;;6.30;3.80;;;3.00;99.90;;;4.14;84.59;102536.06;5017924;28;20049;-82
2022/01/12 03:59:10;;;;;;;10.65;4.22;;;3.10;99.90;;;4.24;84.06;102525.06;5034904;28;20029;-80
2022/01/12 04:01:36;;;;;;;6.50;4.18;;;3.10;99.90;;;4.10;84.04;102523.06;5035590;28;20022;-80
2022/01/12 04:04:09;;;;;;;7.05;4.22;;;3.20;99.90;;;4.21;83.76;102513.69;5036110;28;20091;-81
2022/01/12 04:09:22;;;;;;;7.90;4.45;;;3.20;99.90;;;4.25;83.41;102517.59;5036592;28;20067;-81
2022/01/12 04:11:47;;;;;;;7.53;4.03;;;3.20;99.90;;;4.36;83.42;102524.84;5039102;28;20025;-80
2022/01/12 04:14:16;;;;;;;8.73;3.88;;;3.20;99.90;;;4.33;83.43;102519.84;5039224;28;20022;-82
2022/01/12 04:16:45;;;;;;;6.18;3.70;;;3.20;99.90;;;4.30;83.74;102520.41;5036178;28;20449;-81
2022/01/12 04:19:11;;;;;;;9.35;4.25;;;3.20;99.90;;;4.25;83.69;102523.13;5035815;28;20611;-80
2022/01/12 04:21:49;;;;;;;7.07;4.10;;;3.20;99.90;;;4.24;84.17;102530.59;5019456;28;20092;-79
2022/01/12 04:24:15;;;;;;;6.72;4.20;;;3.20;99.90;;;4.25;84.50;102529.50;5036629;28;20049;-82
2022/01/12 04:26:41;;;;;;;9.35;4.30;;;3.20;99.90;;;4.33;84.08;102536.44;5031448;28;20041;-79
2022/01/12 04:29:10;;;;;;;6.80;3.83;;;3.20;99.90;;;4.38;83.42;102530.94;5016405;28;20030;-81
2022/01/12 04:31:38;;;;;;;9.93;4.60;;;3.30;99.90;;;4.45;83.50;102539.81;5015462;28;20026;-82
2022/01/12 04:34:06;;;;;;;8.25;4.50;;;3.30;99.90;;;4.40;83.39;102533.44;5020959;28;20044;-80
2022/01/12 04:36:33;;;;;;;7.78;4.60;;;3.30;99.90;;;4.47;83.78;102534.81;5025350;28;20026;-81
2022/01/12 04:38:59;;;;;;;11.45;3.97;;;3.20;99.90;;;4.48;83.59;102538.44;5015216;28;20077;-80
2022/01/12 04:41:26;;;;;;;7.20;4.38;;;3.20;99.90;;;4.47;83.80;102532.06;5016176;28;20026;-80
2022/01/12 04:43:53;;;;;;;8.10;4.03;;;3.30;99.90;;;4.48;83.75;102536.50;5015829;28;20033;-81
2022/01/12 04:46:30;;;;;;;7.28;4.50;;;3.30;99.90;;;4.49;83.36;102542.88;5017296;28;20033;-82
2022/01/12 04:51:46;;;;;;;8.38;5.10;;;3.30;99.90;;;4.51;82.98;102546.19;5017836;28;20150;-79
2022/01/12 04:54:12;;;;;;;9.27;5.18;;;3.30;99.90;;;4.47;82.98;102534.00;5014672;28;20034;-80
2022/01/12 04:56:37;;;;;;;9.75;5.22;;;3.40;99.90;;;4.48;83.52;102530.13;5015401;28;20041;-80
2022/01/12 04:59:03;;;;;;;9.52;4.35;;;3.40;99.90;;;4.52;83.41;102551.47;5015610;28;20030;-80
2022/01/12 05:01:36;;;;;;;7.25;4.18;;;3.40;99.90;;;4.50;83.16;102553.66;5015414;28;20071;-79
2022/01/12 05:07:07;;;;;;;8.82;4.85;;;3.40;99.90;;;4.56;83.28;102560.88;5014698;28;20087;-80
2022/01/12 05:14:52;;;;;;;7.35;4.25;;;3.40;99.90;;;4.66;82.76;102563.66;5015014;28;20516;-80
2022/01/12 05:17:19;;;;;;;9.35;4.10;;;3.40;99.90;;;4.65;83.24;102556.50;5018181;28;20100;-80
2022/01/12 05:19:47;;;;;;;6.70;4.32;;;3.40;99.90;;;4.64;82.82;102557.59;5033237;28;20072;-80
2022/01/12 05:22:13;;;;;;;7.18;4.10;;;3.40;99.90;;;4.65;83.25;102558.41;5018716;28;20057;-80
2022/01/12 05:24:39;;;;;;;8.10;4.18;;;3.40;99.90;;;4.62;83.09;102565.31;5019228;28;20442;-82
2022/01/12 05:27:05;;;;;;;10.10;4.47;;;3.40;99.90;;;4.64;83.33;102559.50;5038407;28;20065;-81
2022/01/12 05:29:31;;;;;;;9.77;4.05;;;3.40;99.90;;;4.65;83.18;102563.97;5038790;28;20034;-82
2022/01/12 05:32:00;;;;;;;11.10;4.10;;;3.40;99.90;;;4.67;82.63;102570.03;5021481;28;20036;-79
2022/01/12 05:34:26;;;;;;;6.43;4.00;;;3.40;99.90;;;4.68;82.74;102572.56;5039119;28;20071;-80
2022/01/12 05:36:52;;;;;;;10.75;4.85;;;3.40;99.90;;;4.68;83.01;102578.09;5039169;28;20480;-78
2022/01/12 05:39:21;;;;;;;10.60;4.88;;;3.40;99.90;;;4.70;82.49;102584.16;5039553;28;20071;-79
2022/01/12 05:41:46;;;;;;;10.07;4.20;;;3.40;99.90;;;4.73;82.99;102585.56;5021899;28;20398;-79
2022/01/12 05:44:12;;;;;;;6.80;3.97;;;3.50;99.90;;;4.73;82.87;102589.16;5021227;28;20030;-79
2022/01/12 05:46:41;;;;;;;9.65;4.90;;;3.40;99.90;;;4.71;82.39;102591.38;5039122;28;20036;-80
2022/01/12 05:51:51;;;;;;;9.35;4.43;;;3.40;99.90;;;4.71;82.33;102583.06;5039589;28;20045;-79
2022/01/12 05:54:20;;;;;;;8.07;4.30;;;3.50;99.90;;;4.57;82.10;102562.53;5040092;28;20025;-80
2022/01/12 05:56:47;;;;;;;11.27;4.88;;;3.40;99.90;;;4.62;82.48;102578.34;5036874;28;20162;-80
2022/01/12 05:59:13;;;;;;;9.82;4.10;;;3.50;99.90;;;4.71;82.09;102573.94;5019170;28;20029;-80
2022/01/12 06:01:41;;;;;;;10.15;4.82;;;3.50;99.90;;;4.81;81.56;102573.13;5020081;28;20029;-80
2022/01/12 06:04:10;;;;;;;8.23;4.57;;;3.50;99.90;;;4.78;81.19;102577.28;5035827;28;20033;-80
2022/01/12 06:06:36;;;;;;;8.63;5.03;;;3.50;99.90;;;4.68;81.70;102572.56;5019566;28;20106;-82
2022/01/12 06:09:03;;;;;;;11.77;5.15;;;3.60;99.90;;;4.68;82.10;102572.56;5018998;28;20063;-79
2022/01/12 06:11:32;;;;;;;10.80;5.28;;;3.50;99.90;;;4.59;82.16;102565.84;5036816;28;20033;-80
2022/01/12 06:14:02;;;;;;;11.60;5.05;;;3.50;99.90;;;4.65;81.99;102566.72;5037525;28;20025;-79
2022/01/12 06:16:29;;;;;;;12.52;5.20;;;3.50;99.90;;;4.59;82.21;102574.16;5037650;28;20033;-80
2022/01/12 06:18:56;;;;;;;10.98;5.63;;;3.50;99.90;;;4.60;82.71;102572.22;5036436;28;20559;-78
2022/01/12 06:21:25;;;;;;;8.90;5.10;;;3.50;99.90;;;4.66;82.69;102580.28;5036452;28;20033;-78
2022/01/12 06:23:51;;;;;;;9.60;5.30;;;3.40;99.90;;;4.65;82.38;102591.63;5018939;28;20327;-78
2022/01/12 06:26:19;;;;;;;14.20;5.60;;;3.40;99.90;;;4.68;82.66;102593.84;5022359;28;20030;-79
2022/01/12 06:29:04;;;;;;;12.43;4.70;;;3.40;99.90;;;4.72;82.26;102603.25;5020125;28;20026;-79
2022/01/12 06:31:33;;;;;;;11.60;4.95;;;3.50;99.90;;;4.75;82.44;102608.28;5028398;28;20049;-80
2022/01/12 06:33:58;;;;;;;11.73;5.53;;;3.40;99.90;;;4.72;81.98;102600.50;5017968;28;20033;-81
2022/01/12 06:36:24;;;;;;;9.27;5.13;;;3.50;99.90;;;4.69;81.82;102599.09;5016562;28;20026;-79
2022/01/12 06:38:50;;;;;;;9.18;5.03;;;3.50;99.90;;;4.73;81.92;102596.63;5017448;28;20033;-78
2022/01/12 06:41:17;;;;;;;9.43;5.22;;;3.50;99.90;;;4.79;81.57;102598.31;5016712;28;20084;-78
2022/01/12 06:43:44;;;;;;;8.93;5.35;;;3.50;99.90;;;4.79;81.61;102604.69;5017433;28;20026;-78
2022/01/12 06:46:11;;;;;;;8.75;4.75;;;3.50;99.90;;;4.81;81.53;102596.13;5015319;28;20038;-80
2022/01/12 06:48:40;;;;;;;10.77;5.13;;;3.50;99.90;;;4.80;81.81;102594.44;5015902;28;20033;-78
2022/01/12 06:51:08;;;;;;;13.70;5.75;;;3.50;99.90;;;4.85;81.11;102602.75;5017601;28;20033;-81
2022/01/12 06:53:34;;;;;;;10.18;5.45;;;3.60;99.90;;;4.89;80.86;102605.81;5015900;28;20509;-79
2022/01/12 06:56:00;;;;;;;10.73;5.50;;;3.60;99.90;;;4.92;80.72;102614.41;5016591;28;20043;-81
2022/01/12 06:58:26;;;;;;;10.88;5.78;;;3.60;99.90;;;4.93;80.87;102609.72;5014758;28;20482;-79
2022/01/12 07:00:52;;;;;;;10.05;5.30;;;3.70;99.90;;;4.97;80.62;102608.91;5017308;28;20022;-79
2022/01/12 07:03:18;;;;;;;13.73;5.68;;;3.70;99.90;;;5.00;80.12;102607.53;5018800;28;20061;-79
2022/01/12 07:05:44;;;;;;;10.15;5.50;;;3.70;99.90;;;4.99;80.11;102609.44;5018202;28;20037;-80
2022/01/12 07:08:13;;;;;;;11.65;5.50;;;3.70;99.90;;;4.98;79.92;102607.78;5016434;28;20029;-80
2022/01/12 07:10:39;;;;;;;11.50;5.93;;;3.70;99.90;;;5.00;80.22;102624.13;5018485;28;20041;-78
2022/01/12 07:13:05;;;;;;;10.50;5.43;;;3.70;99.90;;;4.91;80.73;102623.00;5015705;28;20107;-79
2022/01/12 07:15:31;;;;;;;13.98;6.65;;;3.70;99.90;;;4.92;80.63;102619.94;5016711;28;20030;-78
2022/01/12 07:18:04;;;;;;;12.13;5.75;;;3.70;99.90;;;4.95;80.21;102627.72;5016901;28;20049;-78
2022/01/12 07:20:30;;;;;;;11.40;5.88;;;3.70;99.90;;;4.92;80.78;102622.72;5016903;28;20034;-78
2022/01/12 07:22:55;;;;;;;12.48;6.25;;;3.70;99.90;;;5.01;79.85;102634.13;5017041;28;20044;-78
2022/01/12 07:25:27;;;;;;;9.40;5.55;;;3.70;99.90;;;5.02;79.42;102638.53;5038528;28;20048;-80
2022/01/12 07:27:53;;;;;;;12.15;6.15;;;3.80;99.90;;;5.07;79.42;102639.38;5022793;28;20094;-78
2022/01/12 07:30:22;;;;;;;11.57;5.75;;;3.80;99.90;;;5.03;79.53;102654.06;5038001;28;20053;-78
2022/01/12 07:32:49;;;;;;;10.65;5.65;;;3.80;99.90;;;5.06;79.78;102662.66;5037880;28;20033;-79
2022/01/12 07:35:15;;;;;;;12.30;6.20;;;3.80;99.90;;;5.15;78.55;102685.09;5037880;28;20022;-79
2022/01/12 07:37:41;;;;;;;11.63;5.55;;;3.80;99.90;;;5.14;78.31;102678.72;5041300;28;20026;-79
2022/01/12 07:40:08;;;;;;;9.80;5.85;;;3.80;99.90;;;5.12;78.11;102677.34;5046950;28;20025;-79
2022/01/12 07:42:35;;;;;;;11.07;6.10;;;3.80;99.90;;;5.08;79.18;102681.75;5042896;28;20029;-78
2022/01/12 07:45:04;;;;;;;11.63;6.13;;;3.80;99.90;;;5.09;79.17;102683.44;5020547;28;20048;-80
2022/01/12 07:47:37;;;;;;;11.25;6.05;;;3.80;99.90;;;5.10;79.13;102683.16;5040507;28;20056;-80
2022/01/12 07:50:07;;;;;;;12.90;6.40;;;3.80;99.90;;;5.15;78.46;102696.19;5041673;28;20088;-80
2022/01/12 07:52:33;;;;;;;12.05;6.88;;;3.80;99.90;;;5.11;79.20;102706.97;5044115;28;20099;-80
2022/01/12 07:54:59;;;;;;;14.10;6.70;;;3.80;99.90;;;5.08;79.81;102701.13;5041792;28;20037;-80
2022/01/12 07:57:29;;;;;;;11.43;6.28;;;3.80;99.90;;;5.12;79.62;102710.59;5037157;28;20399;-80
2022/01/12 07:59:55;;;;;;;14.68;6.85;;;3.80;99.90;;;5.08;79.39;102712.22;5036290;28;20492;-80
2022/01/12 08:02:22;;;;;;;13.27;7.10;;;3.80;99.90;;;5.03;80.24;102704.75;5037071;28;20427;-80
2022/01/12 08:04:48;;;;;;;20.40;6.82;;;3.70;99.90;;;4.89;81.58;102705.50;5037412;28;20041;-80
2022/01/12 08:07:14;;;;;;;13.40;7.38;;;3.70;99.90;;;4.91;81.30;102706.91;5040073;28;20080;-79
2022/01/12 08:09:43;;;;;;;15.43;6.90;;;3.70;99.90;;;4.88;81.11;102715.75;5043248;28;20461;-81
2022/01/12 08:12:11;;;;;;;16.45;7.30;;;3.70;99.90;;;4.95;81.33;102707.19;5038243;28;20449;-79
2022/01/12 08:14:37;;;;;;;13.25;7.75;;;3.70;99.90;;;4.95;81.25;102719.09;5037759;28;20129;-79
2022/01/12 08:17:04;;;;;;;16.75;7.60;;;3.70;99.90;;;4.97;82.08;102713.31;5037255;28;20025;-79
2022/01/12 08:19:33;;;;;;;14.80;8.60;;;3.70;99.90;;;4.96;82.19;102715.22;5020000;28;20099;-80
2022/01/12 08:22:04;;;;;;;16.40;8.73;;;3.70;99.90;;;5.01;82.55;102718.00;5036679;28;20483;-79
2022/01/12 08:24:29;;;;;;;17.60;9.52;;;3.70;99.90;;;5.06;83.05;102725.53;5037551;28;20071;-78
2022/01/12 08:26:55;;;;;;;17.58;9.10;;;3.70;99.90;;;5.00;83.62;102719.13;5031966;28;20038;-80
2022/01/12 08:29:22;;;;;;;21.38;10.13;;;3.80;99.90;;;5.00;84.46;102724.69;5016133;28;20080;-80
2022/01/12 08:31:48;;;;;;;20.80;10.07;;;3.70;99.90;;;5.03;84.87;102726.91;5018774;28;20026;-80
2022/01/12 08:34:14;;;;;;;20.92;9.95;;;3.70;99.90;;;5.01;85.26;102720.78;5016586;28;20029;-80
2022/01/12 08:36:41;;;;;;;22.75;9.95;;;3.80;99.90;;;5.07;85.25;102719.69;5020958;28;20030;-78
2022/01/12 08:39:09;;;;;;;26.40;11.25;;;3.80;99.90;;;5.09;85.30;102728.59;5026419;28;20141;-80
2022/01/12 08:41:37;;;;;;;24.30;11.02;;;3.80;99.90;;;5.09;85.45;102736.06;5026036;28;20120;-81
2022/01/12 08:44:07;;;;;;;22.10;10.32;;;3.80;99.90;;;5.08;85.96;102728.84;5019183;28;20481;-79
2022/01/12 08:46:35;;;;;;;18.90;9.25;;;3.80;99.90;;;5.13;85.22;102742.72;5015946;28;20026;-79
2022/01/12 08:49:05;;;;;;;21.15;10.55;;;3.80;99.90;;;5.15;86.10;102748.81;5013873;28;20040;-80
2022/01/12 08:51:31;;;;;;;22.80;11.15;;;3.80;99.90;;;5.18;85.73;102748.28;5014558;28;20034;-80
2022/01/12 08:53:57;;;;;;;16.27;9.07;;;3.90;99.90;;;5.14;85.84;102747.16;5015196;28;20121;-80
2022/01/12 08:56:26;;;;;;;19.08;10.13;;;3.80;99.90;;;5.12;86.84;102750.19;5016439;28;20026;-79
2022/01/12 08:58:55;;;;;;;23.63;10.30;;;3.90;99.90;;;5.10;86.87;102748.81;5013888;28;20041;-78
2022/01/12 09:01:27;;;;;;;19.42;10.35;;;3.90;99.90;;;5.11;86.28;102750.47;5016371;28;20026;-79
2022/01/12 09:03:52;;;;;;;24.35;10.07;;;3.80;99.90;;;5.14;85.88;102747.97;5032175;28;20085;-79
2022/01/12 09:06:21;;;;;;;18.98;9.07;;;3.80;99.90;;;5.19;86.17;102756.34;5016339;28;20045;-78
2022/01/12 09:08:49;;;;;;;21.60;10.95;;;3.90;99.90;;;5.26;86.02;102764.41;5015734;28;20026;-79
2022/01/12 09:11:18;;;;;;;22.90;11.18;;;3.90;99.90;;;5.30;85.15;102773.81;5014664;28;20037;-78
2022/01/12 09:13:44;;;;;;;17.52;10.13;;;3.90;99.90;;;5.30;85.02;102776.59;5014265;28;20038;-78
2022/01/12 09:16:10;;;;;;;23.98;11.45;;;3.90;99.90;;;5.33;85.11;102787.97;5015512;28;20549;-78
2022/01/12 09:18:43;;;;;;;23.73;10.95;;;4.00;99.90;;;5.36;85.15;102791.31;5062863;22;20138;-76
2022/01/12 09:21:10;;;;;;;21.48;11.10;;;4.00;99.90;;;5.33;84.65;102798.19;5051077;28;20024;-78
2022/01/12 09:23:40;;;;;;;24.00;11.50;;;4.00;99.90;;;5.34;84.81;102808.19;5051488;28;20025;-77
2022/01/12 09:26:06;;;;;;;20.80;10.38;;;4.00;99.90;;;5.37;84.29;102807.66;5060284;28;20037;-76
2022/01/12 09:28:33;;;;;;;23.95;12.07;;;4.00;99.90;;;5.38;84.19;102808.50;5071130;28;20036;-77
2022/01/12 09:31:01;;;;;;;23.85;10.77;;;4.00;99.90;;;5.37;84.83;102796.56;5071695;28;20020;-76
2022/01/12 09:33:34;;;;;;;23.80;12.02;;;4.00;99.90;;;5.36;85.51;102803.22;5071255;28;20553;-76
2022/01/12 09:36:00;;;;;;;20.80;11.40;;;4.00;99.90;;;5.30;85.39;102812.59;5053726;28;20499;-79
2022/01/12 09:38:25;;;;;;;21.92;11.73;;;4.00;99.90;;;5.25;85.54;102812.59;5071192;28;20040;-77
2022/01/12 09:40:54;;;;;;;21.17;11.18;;;4.00;99.90;;;5.24;85.73;102816.47;5072238;28;20034;-78
2022/01/12 09:43:26;;;;;;;22.52;10.77;;;3.90;99.90;;;5.24;86.22;102803.44;5072324;28;20033;-77
2022/01/12 09:45:53;;;;;;;22.40;10.18;;;3.90;99.90;;;5.28;86.46;102798.19;5055559;28;20040;-78
2022/01/12 09:48:24;;;;;;;26.73;11.38;;;4.00;99.90;;;5.34;86.76;102799.88;5077151;28;20098;-77
2022/01/12 09:50:56;;;;;;;21.63;11.70;;;4.00;99.90;;;5.36;87.12;102796.84;5065345;28;20029;-77
2022/01/12 09:53:22;;;;;;;22.55;11.60;;;4.10;99.90;;;5.47;86.88;102793.00;5064520;28;20090;-78
2022/01/12 09:55:48;;;;;;;19.95;10.77;;;4.10;99.90;;;5.55;86.41;102801.63;5069278;28;20053;-76
2022/01/12 09:58:17;;;;;;;25.55;12.48;;;4.20;99.90;;;5.64;85.93;102804.69;5053502;28;20124;-77
2022/01/12 10:00:56;;;;;;;24.95;11.60;;;4.30;99.90;;;5.65;85.44;102800.84;5053430;28;20492;-77
2022/01/12 10:03:26;;;;;;;20.15;11.50;;;4.30;99.90;;;5.71;85.30;102788.66;5054634;28;20092;-77
2022/01/12 10:05:55;;;;;;;23.63;12.00;;;4.30;99.90;;;5.77;85.04;102799.47;5054858;28;20041;-77
2022/01/12 10:08:22;;;;;;;24.60;11.88;;;4.40;99.90;;;5.84;84.99;102791.69;5055349;28;20561;-77
2022/01/12 10:11:15;;;;;;;22.63;11.60;;;4.50;99.90;;;5.96;84.47;102793.44;5053320;28;20491;-76
2022/01/12 10:13:41;;;;;;;23.75;12.02;;;4.50;99.90;;;6.01;82.79;102801.75;5054462;28;20044;-77
2022/01/12 10:16:17;;;;;;;26.63;13.13;;;4.60;99.90;;;5.99;83.01;102801.19;5053140;28;20618;-77
2022/01/12 10:18:55;;;;;;;23.45;11.65;;;4.60;99.90;;;5.95;83.03;102788.97;5052727;28;20039;-77
2022/01/12 10:21:40;;;;;;;21.67;10.50;;;4.60;99.90;;;5.99;83.50;102790.09;5054334;28;20025;-77
2022/01/12 10:24:12;;;;;;;22.33;10.83;;;4.60;99.90;;;6.02;83.11;102790.38;5054569;28;20376;-78
2022/01/12 10:26:44;;;;;;;19.80;10.77;;;4.60;99.90;;;6.12;83.51;102795.13;5072824;28;20048;-76
2022/01/12 10:29:25;;;;;;;22.40;11.07;;;4.70;99.90;;;6.15;84.01;102795.41;5074760;28;20060;-77
2022/01/12 10:32:05;;;;;;;25.98;11.18;;;4.70;99.90;;;6.16;83.55;102797.06;5056527;28;20476;-77
2022/01/12 10:34:44;;;;;;;23.45;11.63;;;4.70;99.90;;;6.12;83.77;102809.81;5074156;28;20035;-77
2022/01/12 10:37:14;;;;;;;27.88;13.20;;;4.70;99.90;;;6.10;84.11;102817.56;5073809;28;20027;-77
2022/01/12 10:39:48;;;;;;;31.60;16.67;;;4.70;99.90;;;6.15;83.53;102820.38;5074147;28;20048;-77
2022/01/12 10:42:28;;;;;;;38.13;18.75;;;4.70;99.90;;;6.08;83.46;102814.25;5074202;28;20097;-76
2022/01/12 10:45:03;;;;;;;41.92;19.27;;;4.70;99.90;;;5.95;84.14;102816.72;5074235;28;20028;-77
2022/01/12 10:47:32;;;;;;;36.28;16.70;;;4.60;99.90;;;5.93;85.55;102808.69;5073718;28;20463;-77
2022/01/12 10:50:10;;;;;;;34.72;13.88;;;4.60;99.90;;;5.87;86.02;102815.34;5073696;28;20036;-76
2022/01/12 10:52:51;;;;;;;24.33;13.10;;;4.60;99.90;;;5.88;86.53;102816.97;5073569;28;20031;-77
2022/01/12 10:55:17;;;;;;;30.10;13.50;;;4.60;99.90;;;5.97;85.90;102817.28;5073951;28;20027;-78
2022/01/12 10:57:47;;;;;;;36.17;18.30;;;4.60;99.90;;;5.97;85.84;102826.47;5074637;28;20060;-79
2022/01/12 11:00:24;;;;;;;37.95;15.68;;;4.60;99.90;;;6.01;86.47;102827.56;5073495;28;20047;-77
2022/01/12 11:02:59;;;;;;;33.80;15.25;;;4.60;99.90;;;5.94;85.92;102834.50;5075268;28;20028;-78
2022/01/12 11:05:30;;;;;;;31.95;14.73;;;4.60;99.90;;;5.90;86.83;102830.59;5074606;28;20035;-78
2022/01/12 11:07:56;;;;;;;35.25;16.45;;;4.60;99.90;;;5.91;87.55;102832.28;5075828;28;20070;-77
2022/01/12 11:10:23;;;;;;;35.33;15.98;;;4.50;99.90;;;5.90;88.15;102833.38;5058873;28;20056;-78
2022/01/12 11:12:51;;;;;;;39.72;17.33;;;4.60;99.90;;;5.89;88.93;102834.47;5056881;28;20122;-76
2022/01/12 11:15:21;;;;;;;46.88;18.52;;;4.50;99.90;;;5.87;89.48;102831.97;5073375;28;20024;-78
2022/01/12 11:17:51;;;;;;;46.65;19.67;;;4.60;99.90;;;5.87;89.81;102833.91;5073758;28;20044;-76
2022/01/12 11:20:30;;;;;;;48.22;18.60;;;4.50;99.90;;;5.77;90.41;102823.59;5055689;28;20108;-77
2022/01/12 11:23:14;;;;;;;39.78;17.95;;;4.50;99.90;;;5.76;90.26;102827.47;5073357;28;20446;-78
2022/01/12 11:25:52;;;;;;;49.33;21.13;;;4.50;99.90;;;5.68;91.21;102826.06;5065549;28;20399;-78
2022/01/12 11:28:37;;;;;;;61.88;20.00;;;4.40;99.90;;;5.65;92.69;102823.03;5052646;28;20033;-76
2022/01/12 11:31:04;;;;;;;46.80;19.55;;;4.30;99.90;;;5.67;92.66;102827.19;5053564;28;20135;-77
2022/01/12 11:33:33;;;;;;;48.03;19.27;;;4.30;99.90;;;5.66;93.03;102822.72;5053775;28;20033;-78
2022/01/12 11:36:27;;;;;;;47.45;20.40;;;4.40;99.90;;;5.69;93.67;102833.28;5054742;28;20033;-77
2022/01/12 11:39:10;;;;;;;50.03;20.88;;;4.40;99.90;;;5.73;93.29;102839.94;5054190;28;20036;-77
2022/01/12 11:41:48;;;;;;;55.00;20.65;;;4.40;99.90;;;5.79;93.13;102833.31;5052969;28;20046;-77